Time;durP1;ratioP1;P1;durP2;ratioP2;P2;SDS_P1;SDS_P2;PMS_P1;PMS_P2;Temp;Humidity;BMP_temperature;BMP_pressure;BME280_temperature;BME280_humidity;BME280_pressure;Samples;Min_cycle;Max_cycle;Signal;HPM_P1;HPM_P2
2022/10/15 00:00:18;;;;;;;111.68;26.77;;;11.10;99.90;;;;;;6211077;23;20013;-75
2022/10/15 00:02:44;;;;;;;98.07;25.00;;;11.10;99.90;;;;;;6211149;23;20059;-75
2022/10/15 00:05:09;;;;;;;103.63;25.02;;;11.00;99.90;;;;;;6211310;23;20003;-76
2022/10/15 00:07:35;;;;;;;87.68;27.98;;;11.10;99.90;;;;;;6211085;23;20015;-75
2022/10/15 00:10:00;;;;;;;52.20;25.65;;;11.00;99.90;;;;;;6208890;23;20005;-75
2022/10/15 00:12:26;;;;;;;123.20;26.52;;;11.00;99.90;;;;;;6208842;23;20005;-75
2022/10/15 00:14:51;;;;;;;39.95;24.00;;;11.00;99.90;;;;;;6208977;23;20366;-75
2022/10/15 00:17:17;;;;;;;41.72;21.63;;;11.40;99.90;;;;;;6209031;23;20099;-76
2022/10/15 00:19:42;;;;;;;42.28;23.42;;;11.00;99.90;;;;;;6208671;23;20383;-75
2022/10/15 00:22:08;;;;;;;38.33;22.60;;;10.90;99.90;;;;;;6208928;23;20026;-76
2022/10/15 00:24:35;;;;;;;34.72;20.40;;;10.90;99.90;;;;;;6209206;23;20027;-75
2022/10/15 00:27:00;;;;;;;34.92;21.55;;;10.90;99.90;;;;;;6210111;23;19996;-75
2022/10/15 00:29:26;;;;;;;35.47;21.75;;;10.90;99.90;;;;;;6211438;23;20001;-75
2022/10/15 00:31:51;;;;;;;36.05;21.33;;;10.80;99.90;;;;;;6211119;23;19997;-75
2022/10/15 00:34:17;;;;;;;28.67;20.00;;;10.80;99.90;;;;;;6211499;23;20005;-75
2022/10/15 00:36:42;;;;;;;33.42;22.10;;;10.70;99.90;;;;;;6211112;23;19997;-75
2022/10/15 00:39:09;;;;;;;27.75;19.73;;;10.70;99.90;;;;;;6211211;23;20004;-75
2022/10/15 00:41:39;;;;;;;26.08;20.00;;;10.70;99.90;;;;;;6210635;23;20040;-75
2022/10/15 00:44:23;;;;;;;27.65;19.95;;;10.70;99.90;;;;;;6211328;23;20100;-75
2022/10/15 00:46:50;;;;;;;;;;;10.60;99.90;;;;;;6211124;23;20016;-75
2022/10/15 00:49:39;;;;;;;32.90;21.80;;;10.80;99.90;;;;;;6211413;23;19931;-75
2022/10/15 00:52:07;;;;;;;27.17;20.70;;;10.80;99.90;;;;;;6211300;23;20084;-75
2022/10/15 00:54:39;;;;;;;29.92;21.55;;;10.80;99.90;;;;;;6211324;23;20016;-74
2022/10/15 00:57:07;;;;;;;29.95;21.92;;;10.80;99.90;;;;;;6210453;23;20004;-75
2022/10/15 00:59:35;;;;;;;30.90;23.73;;;10.90;99.90;;;;;;6211190;23;20004;-75
2022/10/15 01:02:01;;;;;;;43.93;26.70;;;10.80;99.90;;;;;;6210712;23;20051;-75
2022/10/15 01:04:28;;;;;;;37.03;25.90;;;10.80;99.90;;;;;;6211127;23;19993;-75
2022/10/15 01:06:54;;;;;;;33.22;22.80;;;10.90;99.90;;;;;;6210720;23;20003;-75
2022/10/15 01:09:19;;;;;;;32.15;23.52;;;10.80;99.90;;;;;;6212758;23;20004;-74
2022/10/15 01:11:51;;;;;;;38.03;24.80;;;10.80;99.90;;;;;;6212219;23;20016;-75
2022/10/15 01:14:51;;;;;;;35.67;23.88;;;10.90;99.90;;;;;;6213264;23;20012;-75
2022/10/15 01:17:26;;;;;;;36.42;23.25;;;10.90;99.90;;;;;;6213355;23;20071;-75
2022/10/15 01:20:29;;;;;;;37.22;24.58;;;10.90;99.90;;;;;;6212421;23;20079;-75
2022/10/15 01:23:24;;;;;;;33.58;23.75;;;11.10;99.90;;;;;;6185426;23;20449;-74
2022/10/15 01:26:08;;;;;;;;;;;11.00;99.90;;;;;;6212595;23;19999;-75
2022/10/15 01:28:42;;;;;;;35.88;24.15;;;11.10;99.90;;;;;;6212749;23;19916;-75
2022/10/15 01:31:13;;;;;;;36.35;24.35;;;11.10;99.90;;;;;;6212717;23;20004;-75
2022/10/15 01:33:46;;;;;;;38.33;24.80;;;11.20;99.90;;;;;;6212389;23;20012;-75
2022/10/15 01:36:20;;;;;;;37.53;26.10;;;11.20;99.90;;;;;;6212706;23;20024;-75
2022/10/15 01:39:12;;;;;;;39.88;27.60;;;11.30;99.90;;;;;;6212433;23;20001;-75
2022/10/15 01:41:42;;;;;;;38.83;25.25;;;11.40;99.90;;;;;;6211905;23;20076;-75
2022/10/15 01:44:10;;;;;;;50.75;29.70;;;11.30;99.90;;;;;;6212802;23;20168;-75
2022/10/15 01:46:53;;;;;;;56.53;30.20;;;11.30;99.90;;;;;;6212443;23;20016;-74
2022/10/15 01:49:25;;;;;;;51.67;31.48;;;11.40;99.90;;;;;;6212530;23;20001;-75
2022/10/15 01:51:52;;;;;;;53.55;31.05;;;11.40;99.90;;;;;;6212110;23;20011;-74
2022/10/15 01:54:20;;;;;;;50.17;30.75;;;11.40;99.90;;;;;;6212274;23;20000;-75
2022/10/15 01:56:50;;;;;;;46.67;30.80;;;11.30;99.90;;;;;;6212511;23;20000;-74
2022/10/15 01:59:20;;;;;;;50.13;29.77;;;11.40;99.90;;;;;;6212609;23;20073;-75
2022/10/15 02:01:46;;;;;;;45.25;29.98;;;11.50;99.90;;;;;;6212122;23;20004;-74
2022/10/15 02:04:24;;;;;;;49.70;30.75;;;11.50;99.90;;;;;;6212222;23;20067;-75
2022/10/15 02:07:13;;;;;;;46.15;31.65;;;9.10;99.90;;;;;;6211753;23;20080;-75
2022/10/15 02:09:52;;;;;;;54.53;29.98;;;11.60;99.90;;;;;;6211361;23;20430;-75
2022/10/15 02:13:02;;;;;;;46.10;27.92;;;11.50;99.90;;;;;;6212504;23;20004;-75
2022/10/15 02:15:35;;;;;;;50.22;29.95;;;11.50;99.90;;;;;;6142443;23;20342;-75
2022/10/15 02:18:13;;;;;;;46.10;27.92;;;11.40;99.90;;;;;;6211839;23;20027;-75
2022/10/15 02:20:54;;;;;;;44.55;28.42;;;11.50;99.90;;;;;;6211506;23;20035;-75
2022/10/15 02:23:30;;;;;;;44.95;30.67;;;11.50;99.90;;;;;;6211540;23;20042;-75
2022/10/15 02:25:57;;;;;;;59.75;30.20;;;12.60;99.90;;;;;;6211984;23;20375;-75
2022/10/15 02:28:25;;;;;;;50.03;30.95;;;11.60;99.90;;;;;;6185321;23;20431;-75
2022/10/15 02:30:53;;;;;;;54.63;30.80;;;11.50;99.90;;;;;;6212039;23;20011;-75
2022/10/15 02:33:20;;;;;;;53.30;30.08;;;11.50;99.90;;;;;;6211956;23;20079;-75
2022/10/15 02:35:48;;;;;;;47.05;30.85;;;11.40;99.90;;;;;;6212006;23;20001;-75
2022/10/15 02:38:16;;;;;;;53.25;31.67;;;13.00;99.90;;;;;;6211564;23;20004;-75
2022/10/15 02:40:43;;;;;;;55.15;31.58;;;11.30;99.90;;;;;;6211766;23;20004;-75
2022/10/15 02:43:12;;;;;;;51.85;31.83;;;11.30;99.90;;;;;;6211757;23;20005;-75
2022/10/15 02:45:38;;;;;;;56.78;34.95;;;11.40;99.90;;;;;;6211836;23;20013;-75
2022/10/15 02:48:04;;;;;;;52.90;32.55;;;11.20;99.90;;;;;;6211724;23;20005;-75
2022/10/15 02:50:29;;;;;;;54.65;33.55;;;11.30;99.90;;;;;;6211819;23;20456;-75
2022/10/15 02:52:55;;;;;;;50.10;31.88;;;11.10;99.90;;;;;;6211091;23;20005;-75
2022/10/15 02:55:21;;;;;;;53.28;32.10;;;11.80;99.90;;;;;;6211684;23;20115;-75
2022/10/15 02:57:46;;;;;;;55.75;33.42;;;11.30;99.90;;;;;;6211322;23;20024;-75
2022/10/15 03:00:12;;;;;;;81.28;36.13;;;11.30;99.90;;;;;;6211782;23;20325;-75
2022/10/15 03:02:38;;;;;;;60.28;34.75;;;11.30;99.90;;;;;;6211383;23;20521;-75
2022/10/15 03:05:04;;;;;;;63.80;33.38;;;11.30;99.90;;;;;;6211647;23;20000;-75
2022/10/15 03:07:29;;;;;;;58.92;34.08;;;11.30;99.90;;;;;;6211216;23;20426;-75
2022/10/15 03:09:55;;;;;;;58.65;34.58;;;11.20;99.90;;;;;;6211711;23;20000;-75
2022/10/15 03:12:22;;;;;;;56.95;33.28;;;11.30;99.90;;;;;;6211883;23;20482;-74
2022/10/15 03:14:48;;;;;;;68.53;33.63;;;11.20;99.90;;;;;;6212099;23;20009;-75
2022/10/15 03:17:14;;;;;;;65.80;34.50;;;11.30;99.90;;;;;;6211546;23;20000;-75
2022/10/15 03:19:39;;;;;;;72.93;35.72;;;11.20;99.90;;;;;;6212040;23;20005;-75
2022/10/15 03:22:05;;;;;;;64.85;33.53;;;11.30;99.90;;;;;;6210822;23;20422;-75
2022/10/15 03:24:31;;;;;;;55.97;32.50;;;11.30;99.90;;;;;;6211571;23;20012;-75
2022/10/15 03:26:56;;;;;;;65.57;36.08;;;11.30;99.90;;;;;;6211161;23;20011;-75
2022/10/15 03:29:22;;;;;;;62.03;36.10;;;13.50;99.90;;;;;;6211533;23;20005;-74
2022/10/15 03:31:48;;;;;;;72.97;39.78;;;11.30;99.90;;;;;;6211146;23;20007;-75
2022/10/15 03:34:14;;;;;;;68.28;39.60;;;11.20;99.90;;;;;;6211344;23;20008;-74
2022/10/15 03:36:39;;;;;;;105.70;40.28;;;11.50;99.90;;;;;;6210800;23;20004;-75
2022/10/15 03:39:06;;;;;;;70.28;38.25;;;11.50;99.90;;;;;;6211300;23;20142;-75
2022/10/15 03:41:32;;;;;;;68.72;36.13;;;11.60;99.90;;;;;;6211605;23;20054;-75
2022/10/15 03:44:02;;;;;;;70.63;38.58;;;11.60;99.90;;;;;;6211082;23;20092;-74
2022/10/15 03:46:27;;;;;;;73.30;37.35;;;11.50;99.90;;;;;;6211018;23;20523;-75
2022/10/15 03:48:53;;;;;;;67.13;35.70;;;11.30;99.90;;;;;;6211197;23;20072;-75
2022/10/15 03:51:19;;;;;;;70.10;35.63;;;11.60;99.90;;;;;;6210608;23;20418;-75
2022/10/15 03:53:44;;;;;;;79.75;38.47;;;12.10;99.90;;;;;;6210967;23;19996;-75
2022/10/15 03:56:10;;;;;;;65.18;34.47;;;12.00;99.90;;;;;;6211428;23;20001;-74
2022/10/15 03:58:35;;;;;;;69.72;34.20;;;11.60;99.90;;;;;;6211213;23;20004;-75
2022/10/15 04:01:06;;;;;;;67.47;35.65;;;11.60;99.90;;;;;;6210732;23;20118;-74
2022/10/15 04:03:32;;;;;;;62.97;37.10;;;11.30;99.90;;;;;;6210916;23;19997;-75
2022/10/15 04:05:57;;;;;;;64.75;37.53;;;11.50;99.90;;;;;;6209686;23;20122;-75
2022/10/15 04:08:23;;;;;;;78.15;35.33;;;11.50;99.90;;;;;;6210947;23;20021;-75
2022/10/15 04:10:50;;;;;;;79.80;34.53;;;11.50;99.90;;;;;;6211050;23;20050;-75
2022/10/15 04:13:15;;;;;;;69.95;38.83;;;11.40;99.90;;;;;;6210819;23;20005;-75
2022/10/15 04:15:41;;;;;;;82.60;38.70;;;11.40;99.90;;;;;;6211391;23;20364;-75
2022/10/15 04:18:06;;;;;;;72.85;38.60;;;11.40;99.90;;;;;;6210538;23;20005;-75
2022/10/15 04:20:32;;;;;;;102.78;42.88;;;11.40;99.90;;;;;;6210235;23;19996;-75
2022/10/15 04:22:57;;;;;;;76.38;40.97;;;11.50;99.90;;;;;;6210532;23;20018;-75
2022/10/15 04:25:23;;;;;;;78.68;40.63;;;11.50;99.90;;;;;;6210906;23;20020;-75
2022/10/15 04:27:48;;;;;;;75.72;42.75;;;11.60;99.90;;;;;;6210802;23;20087;-75
2022/10/15 04:30:14;;;;;;;80.57;45.15;;;11.60;99.90;;;;;;6211012;23;20051;-75
2022/10/15 04:32:39;;;;;;;80.47;45.17;;;11.60;99.90;;;;;;6210951;23;20084;-75
2022/10/15 04:35:05;;;;;;;92.10;45.95;;;11.40;99.90;;;;;;6211025;23;20240;-75
2022/10/15 04:37:34;;;;;;;81.45;45.13;;;11.70;99.90;;;;;;6211041;23;20452;-75
2022/10/15 04:40:00;;;;;;;91.25;47.30;;;11.70;99.90;;;;;;6210808;23;20028;-75
2022/10/15 04:42:28;;;;;;;81.53;48.78;;;11.70;99.90;;;;;;6211474;23;20477;-75
2022/10/15 04:44:54;;;;;;;96.95;48.38;;;11.70;99.90;;;;;;6212201;23;20307;-74
2022/10/15 04:47:19;;;;;;;77.25;41.88;;;11.80;99.90;;;;;;6212909;23;20004;-75
2022/10/15 04:49:45;;;;;;;85.07;47.88;;;;;;;;;;6211991;23;20001;-75
2022/10/15 04:52:11;;;;;;;78.85;45.90;;;11.90;99.90;;;;;;6212843;23;20481;-75
2022/10/15 04:54:36;;;;;;;83.75;49.92;;;11.90;99.90;;;;;;6212697;23;20004;-75
2022/10/15 04:57:03;;;;;;;83.13;48.88;;;11.90;99.90;;;;;;6212773;23;20004;-75
2022/10/15 04:59:29;;;;;;;86.25;47.78;;;12.20;99.90;;;;;;6212888;23;20012;-75
2022/10/15 05:01:54;;;;;;;88.13;48.80;;;12.10;99.90;;;;;;6212888;23;19997;-74
2022/10/15 05:04:20;;;;;;;93.85;49.70;;;12.10;99.90;;;;;;6212086;23;19997;-75
2022/10/15 05:06:45;;;;;;;80.35;46.85;;;12.10;99.90;;;;;;6212700;23;19997;-75
2022/10/15 05:09:11;;;;;;;79.47;48.20;;;12.20;99.90;;;;;;6212819;23;20170;-75
2022/10/15 05:11:37;;;;;;;79.93;47.42;;;12.90;99.90;;;;;;6212523;23;19996;-75
2022/10/15 05:14:03;;;;;;;90.40;51.05;;;12.20;99.90;;;;;;6212956;23;20001;-75
2022/10/15 05:16:29;;;;;;;92.28;51.78;;;12.30;99.90;;;;;;6212882;23;20000;-75
2022/10/15 05:19:00;;;;;;;86.75;49.45;;;12.30;99.90;;;;;;6211926;23;20000;-77
2022/10/15 05:21:26;;;;;;;89.10;49.78;;;12.10;99.90;;;;;;6212848;23;19997;-75
2022/10/15 05:23:52;;;;;;;87.45;49.25;;;12.40;99.90;;;;;;6212254;23;20032;-74
2022/10/15 05:26:20;;;;;;;84.40;49.50;;;12.40;99.90;;;;;;6212770;23;20001;-74
2022/10/15 05:28:46;;;;;;;78.03;47.20;;;12.40;99.90;;;;;;6212611;23;20330;-75
2022/10/15 05:31:14;;;;;;;85.28;49.75;;;12.40;99.90;;;;;;6213128;23;20001;-75
2022/10/15 05:33:40;;;;;;;84.40;48.08;;;12.40;99.90;;;;;;6211994;23;20079;-75
2022/10/15 05:36:16;;;;;;;87.82;47.80;;;12.40;99.90;;;;;;6212609;23;20005;-75
2022/10/15 05:38:46;;;;;;;91.03;48.75;;;12.50;99.90;;;;;;6212451;23;20067;-75
2022/10/15 05:41:11;;;;;;;78.47;46.35;;;12.50;99.90;;;;;;6212744;23;20009;-75
2022/10/15 05:43:37;;;;;;;87.43;50.00;;;12.50;99.90;;;;;;6211995;23;20005;-75
2022/10/15 05:46:02;;;;;;;88.13;47.95;;;12.70;99.90;;;;;;6212171;23;20009;-75
2022/10/15 05:48:31;;;;;;;76.05;45.78;;;13.20;99.90;;;;;;6212384;23;20086;-75
2022/10/15 05:51:09;;;;;;;82.10;42.38;;;12.60;99.90;;;;;;6212175;23;20418;-75
2022/10/15 05:53:35;;;;;;;88.30;47.45;;;12.70;99.90;;;;;;6212465;23;20027;-75
2022/10/15 05:56:00;;;;;;;82.15;46.17;;;12.70;99.90;;;;;;6212106;23;20009;-74
2022/10/15 05:58:28;;;;;;;90.25;49.55;;;12.70;99.90;;;;;;6212436;23;20080;-75
2022/10/15 06:00:59;;;;;;;89.78;46.88;;;12.70;99.90;;;;;;6211724;23;20111;-74
2022/10/15 06:03:26;;;;;;;93.55;46.13;;;12.70;99.90;;;;;;6212335;23;20165;-75
2022/10/15 06:05:52;;;;;;;94.25;48.08;;;12.80;99.90;;;;;;6212100;23;20336;-75
2022/10/15 06:08:19;;;;;;;88.35;46.20;;;12.80;99.90;;;;;;6212327;23;20453;-75
2022/10/15 06:10:45;;;;;;;94.25;47.38;;;12.80;99.90;;;;;;6212096;23;20421;-74
2022/10/15 06:13:11;;;;;;;88.93;46.55;;;12.70;99.90;;;;;;6212257;23;20001;-75
2022/10/15 06:15:41;;;;;;;89.60;44.88;;;13.00;99.90;;;;;;6211489;23;20068;-75
2022/10/15 06:18:08;;;;;;;105.47;47.15;;;12.90;99.90;;;;;;6212129;23;20358;-76
2022/10/15 06:20:34;;;;;;;84.93;45.13;;;12.90;99.90;;;;;;6185506;23;20403;-75
2022/10/15 06:23:00;;;;;;;88.70;43.65;;;13.00;99.90;;;;;;6211648;23;20004;-75
2022/10/15 06:25:27;;;;;;;77.55;40.80;;;12.90;99.90;;;;;;6212380;23;20330;-74
2022/10/15 06:27:53;;;;;;;87.28;43.33;;;12.90;99.90;;;;;;6211778;23;20028;-74
2022/10/15 06:30:19;;;;;;;81.20;41.15;;;13.00;99.90;;;;;;6211732;23;20019;-75
2022/10/15 06:32:52;;;;;;;85.15;43.85;;;13.00;99.90;;;;;;6212105;23;20004;-75
2022/10/15 06:35:19;;;;;;;87.20;43.17;;;12.70;99.90;;;;;;6212110;23;20015;-75
2022/10/15 06:37:45;;;;;;;82.35;42.63;;;13.10;99.90;;;;;;6211963;23;20071;-75
2022/10/15 06:40:11;;;;;;;82.90;41.35;;;13.10;99.90;;;;;;6212081;23;20365;-75
2022/10/15 06:42:37;;;;;;;81.43;39.38;;;13.20;99.90;;;;;;6211941;23;20008;-75
2022/10/15 06:45:04;;;;;;;87.90;41.83;;;13.10;99.90;;;;;;6211225;23;20001;-74
2022/10/15 06:47:29;;;;;;;77.75;39.58;;;13.20;99.90;;;;;;6212092;23;20047;-75
2022/10/15 06:49:55;;;;;;;89.72;41.70;;;13.10;99.90;;;;;;6211643;23;20096;-75
2022/10/15 06:52:22;;;;;;;85.50;38.60;;;13.20;99.90;;;;;;6212081;23;20018;-75
2022/10/15 06:54:48;;;;;;;84.15;38.92;;;13.20;99.90;;;;;;6211806;23;20008;-75
2022/10/15 06:57:13;;;;;;;91.57;41.35;;;13.20;99.90;;;;;;6211942;23;20001;-75
2022/10/15 06:59:39;;;;;;;85.70;39.90;;;13.20;99.90;;;;;;6211145;23;20004;-75
2022/10/15 07:02:05;;;;;;;87.30;41.20;;;13.20;99.90;;;;;;6211829;23;20001;-75
2022/10/15 07:04:30;;;;;;;79.13;38.17;;;13.30;99.90;;;;;;6211940;23;20005;-75
2022/10/15 07:06:56;;;;;;;81.13;38.17;;;13.30;99.90;;;;;;6211312;23;20369;-75
2022/10/15 07:09:21;;;;;;;74.90;36.35;;;13.40;99.90;;;;;;6211823;23;20080;-75
2022/10/15 07:11:47;;;;;;;74.43;35.97;;;13.40;99.90;;;;;;6211687;23;20000;-74
2022/10/15 07:14:12;;;;;;;69.75;34.95;;;13.30;99.90;;;;;;6210917;23;20028;-75
2022/10/15 07:16:41;;;;;;;68.30;35.50;;;13.40;99.90;;;;;;6211131;23;20334;-75
2022/10/15 07:19:06;;;;;;;71.93;34.03;;;13.30;99.90;;;;;;6211467;23;20012;-75
2022/10/15 07:21:32;;;;;;;73.93;36.17;;;13.40;99.90;;;;;;6211658;23;20323;-75
2022/10/15 07:23:59;;;;;;;65.55;34.33;;;13.40;99.90;;;;;;6210800;23;20015;-74
2022/10/15 07:26:28;;;;;;;61.60;33.47;;;13.50;99.90;;;;;;6211255;23;20119;-74
2022/10/15 07:28:53;;;;;;;72.47;33.17;;;13.50;99.90;;;;;;6210492;23;20326;-75
2022/10/15 07:31:19;;;;;;;64.22;32.92;;;13.60;99.90;;;;;;6211466;23;19997;-75
2022/10/15 07:33:45;;;;;;;68.35;33.13;;;13.50;99.90;;;;;;6211194;23;20079;-75
2022/10/15 07:36:13;;;;;;;70.80;33.75;;;13.60;99.90;;;;;;6211128;23;20000;-73
2022/10/15 07:38:39;;;;;;;67.55;33.55;;;13.60;99.90;;;;;;6210519;23;20007;-70
2022/10/15 07:41:06;;;;;;;67.95;34.05;;;13.60;99.90;;;;;;6210940;23;20075;-70
2022/10/15 07:43:32;;;;;;;63.88;32.25;;;13.60;99.90;;;;;;6210159;23;20000;-70
2022/10/15 07:45:57;;;;;;;65.85;32.47;;;13.60;99.90;;;;;;6210186;23;20025;-69
2022/10/15 07:48:24;;;;;;;66.88;34.17;;;14.10;99.90;;;;;;6211167;23;20015;-69
2022/10/15 07:50:59;;;;;;;66.20;32.72;;;13.70;99.90;;;;;;6210652;23;20378;-69
2022/10/15 07:53:25;;;;;;;62.03;32.35;;;13.80;99.90;;;;;;6211167;23;20719;-69
2022/10/15 07:55:51;;;;;;;74.40;35.55;;;13.70;99.90;;;;;;6210532;23;20002;-69
2022/10/15 07:58:17;;;;;;;67.88;34.60;;;13.80;99.90;;;;;;6210440;23;20442;-70
2022/10/15 08:00:43;;;;;;;69.90;35.35;;;13.80;99.90;;;;;;6210680;23;19997;-69
2022/10/15 08:03:09;;;;;;;76.43;36.45;;;13.90;99.90;;;;;;6210704;23;20008;-70
2022/10/15 08:05:34;;;;;;;61.28;33.35;;;14.00;99.90;;;;;;6211010;23;20430;-69
2022/10/15 08:08:00;;;;;;;66.85;33.88;;;14.00;99.90;;;;;;6210466;23;19999;-70
2022/10/15 08:10:26;;;;;;;64.35;33.25;;;13.90;99.90;;;;;;6211308;23;20143;-70
2022/10/15 08:12:52;;;;;;;63.58;34.58;;;14.20;99.90;;;;;;6210059;23;20004;-69
2022/10/15 08:15:17;;;;;;;58.55;32.38;;;14.30;99.90;;;;;;6211095;23;20047;-69
2022/10/15 08:17:43;;;;;;;62.75;33.95;;;14.40;99.90;;;;;;6212241;23;20023;-70
2022/10/15 08:20:09;;;;;;;65.55;34.55;;;14.60;99.90;;;;;;6213026;23;19997;-69
2022/10/15 08:22:35;;;;;;;57.10;32.75;;;14.50;99.90;;;;;;6212824;23;20031;-69
2022/10/15 08:25:00;;;;;;;60.13;33.65;;;14.50;99.90;;;;;;6212520;23;20430;-69
2022/10/15 08:27:26;;;;;;;58.40;32.38;;;14.70;99.90;;;;;;6212679;23;19997;-70
2022/10/15 08:29:52;;;;;;;51.70;32.15;;;14.60;99.90;;;;;;6212768;23;20032;-69
2022/10/15 08:32:17;;;;;;;57.25;31.42;;;14.80;99.90;;;;;;6212986;23;20023;-69
2022/10/15 08:34:43;;;;;;;50.20;28.17;;;14.60;99.90;;;;;;6212727;23;20139;-69
2022/10/15 08:37:08;;;;;;;50.60;31.13;;;14.70;99.90;;;;;;6212876;23;19997;-70
2022/10/15 08:39:34;;;;;;;44.70;28.65;;;14.70;99.90;;;;;;6213155;23;20440;-70
2022/10/15 08:42:18;;;;;;;49.38;29.13;;;14.80;99.90;;;;;;6211833;23;20004;-70
2022/10/15 08:44:59;;;;;;;46.17;28.55;;;14.90;99.90;;;;;;6212705;23;20005;-69
2022/10/15 08:47:34;;;;;;;44.90;27.00;;;14.90;99.90;;;;;;6212904;23;20016;-70
2022/10/15 08:50:14;;;;;;;40.20;27.13;;;15.10;99.90;;;;;;6212365;23;20072;-70
2022/10/15 08:52:45;;;;;;;41.55;25.30;;;14.90;99.90;;;;;;6212382;23;20003;-70
2022/10/15 08:55:14;;;;;;;38.13;25.85;;;14.90;99.90;;;;;;6212232;23;20005;-70
2022/10/15 08:57:44;;;;;;;36.95;25.77;;;14.90;99.90;;;;;;6212401;23;20058;-70
2022/10/15 09:00:16;;;;;;;42.65;28.73;;;16.60;99.90;;;;;;6212638;23;20426;-70
2022/10/15 09:02:57;;;;;;;39.28;25.65;;;15.00;99.90;;;;;;6212474;23;20004;-70
2022/10/15 09:05:41;;;;;;;36.03;24.08;;;14.80;99.90;;;;;;6212678;23;20001;-70
2022/10/15 09:08:29;;;;;;;39.63;26.33;;;14.90;99.90;;;;;;6212401;23;20068;-70
2022/10/15 09:11:00;;;;;;;38.75;25.60;;;15.00;99.90;;;;;;6211212;23;19997;-70
2022/10/15 09:13:39;;;;;;;37.22;26.00;;;15.00;99.90;;;;;;6212639;23;20008;-70
2022/10/15 09:16:13;;;;;;;36.65;23.92;;;15.20;99.90;;;;;;6212477;23;20016;-70
2022/10/15 09:18:42;;;;;;;36.90;26.35;;;15.30;99.90;;;;;;6212717;23;20070;-70
2022/10/15 09:21:10;;;;;;;36.03;24.95;;;15.40;99.90;;;;;;6212825;23;20321;-70
2022/10/15 09:23:36;;;;;;;38.60;24.08;;;15.50;99.90;;;;;;6211695;23;20005;-69
2022/10/15 09:26:27;;;;;;;36.78;23.77;;;15.50;99.90;;;;;;6212223;23;20001;-70
2022/10/15 09:29:14;;;;;;;31.40;21.88;;;15.60;99.90;;;;;;6212043;23;20263;-70
2022/10/15 09:31:58;;;;;;;33.50;22.92;;;15.70;99.90;;;;;;6212177;23;19996;-70
2022/10/15 09:34:42;;;;;;;28.90;20.65;;;15.60;99.90;;;;;;6212581;23;20040;-70
2022/10/15 09:37:25;;;;;;;28.93;19.50;;;15.70;99.90;;;;;;6212412;23;19997;-70
2022/10/15 09:40:28;;;;;;;26.92;18.60;;;15.80;99.90;;;;;;6211533;23;20359;-70
2022/10/15 09:42:57;;;;;;;25.15;18.27;;;15.90;99.90;;;;;;6212419;23;20015;-71
2022/10/15 09:45:23;;;;;;;23.20;17.45;;;15.90;99.90;;;;;;6212196;23;20017;-70
2022/10/15 09:47:49;;;;;;;21.70;17.67;;;15.70;99.90;;;;;;6185378;23;20013;-70
2022/10/15 09:50:15;;;;;;;20.30;14.75;;;15.90;99.90;;;;;;6211896;23;20001;-70
2022/10/15 09:52:46;;;;;;;22.27;15.90;;;16.20;99.90;;;;;;6211684;23;20070;-70
2022/10/15 09:55:34;;;;;;;22.58;14.68;;;16.40;99.90;;;;;;6212238;23;20075;-71
2022/10/15 09:58:07;;;;;;;20.73;14.10;;;16.20;99.90;;;;;;6212226;23;20008;-70
2022/10/15 10:00:55;;;;;;;17.98;13.93;;;16.10;99.90;;;;;;6212339;23;20001;-70
2022/10/15 10:03:23;;;;;;;22.58;14.30;;;16.00;99.90;;;;;;6211758;23;20091;-69
2022/10/15 10:05:49;;;;;;;19.65;14.18;;;16.10;99.90;;;;;;6211907;23;20031;-69
2022/10/15 10:08:20;;;;;;;16.52;13.10;;;15.80;99.90;;;;;;6211083;23;19996;-68
2022/10/15 10:10:57;;;;;;;23.00;14.88;;;18.10;99.90;;;;;;6212058;23;20325;-68
2022/10/15 10:13:26;;;;;;;23.05;16.10;;;15.80;99.90;;;;;;6211467;23;19996;-68
2022/10/15 10:15:54;;;;;;;21.25;15.88;;;15.80;99.90;;;;;;6211693;23;20051;-68
2022/10/15 10:18:22;;;;;;;20.30;15.43;;;16.00;99.90;;;;;;6211497;23;20453;-68
2022/10/15 10:21:00;;;;;;;21.83;16.50;;;16.00;99.90;;;;;;6211610;23;20000;-70
2022/10/15 10:23:33;;;;;;;24.67;16.35;;;16.00;99.90;;;;;;6210859;23;20006;-69
2022/10/15 10:26:00;;;;;;;22.75;15.55;;;16.00;99.90;;;;;;6212034;23;20001;-68
2022/10/15 10:28:49;;;;;;;23.60;15.18;;;15.90;99.90;;;;;;6211435;23;20007;-68
2022/10/15 10:31:14;;;;;;;27.50;16.20;;;15.80;99.90;;;;;;6210321;23;20005;-68
2022/10/15 10:33:48;;;;;;;23.55;15.48;;;15.90;99.90;;;;;;6212078;23;20009;-69
2022/10/15 10:36:25;;;;;;;23.75;15.50;;;15.80;99.90;;;;;;6211488;23;20016;-68
2022/10/15 10:39:12;;;;;;;22.27;15.73;;;15.80;99.90;;;;;;6211673;23;20326;-69
2022/10/15 10:41:56;;;;;;;27.38;17.05;;;16.80;99.90;;;;;;6211009;23;20008;-69
2022/10/15 10:44:29;;;;;;;22.92;14.43;;;15.70;99.90;;;;;;6211420;23;20008;-69
2022/10/15 10:47:23;;;;;;;26.98;15.43;;;15.70;99.90;;;;;;6211420;23;20020;-69
2022/10/15 10:49:50;;;;;;;21.23;15.07;;;15.70;99.90;;;;;;6210514;23;20453;-69
2022/10/15 10:52:23;;;;;;;21.45;14.45;;;15.60;99.90;;;;;;6210876;23;20486;-69
2022/10/15 10:55:01;;;;;;;30.75;18.85;;;15.80;99.90;;;;;;6211448;23;20004;-69
2022/10/15 10:57:40;;;;;;;22.08;16.23;;;15.70;99.90;;;;;;6211256;23;20003;-69
2022/10/15 11:00:07;;;;;;;20.85;15.65;;;15.80;99.90;;;;;;6211895;23;19999;-69
2022/10/15 11:02:38;;;;;;;21.13;13.63;;;15.70;99.90;;;;;;6211365;23;22708;-69
2022/10/15 11:05:03;;;;;;;22.05;15.57;;;15.80;99.90;;;;;;6210884;23;20368;-69
2022/10/15 11:07:55;;;;;;;23.85;16.25;;;15.80;99.90;;;;;;6211248;23;20000;-69
2022/10/15 11:10:27;;;;;;;27.33;15.75;;;15.80;99.90;;;;;;6211144;23;19996;-69
2022/10/15 13:22:36;;;;;;;7.78;7.18;;;17.70;99.90;;;;;;6269705;22;98517;-69
2022/10/15 13:25:02;;;;;;;8.55;7.82;;;17.60;99.90;;;;;;6271095;22;20011;-70
2022/10/15 13:27:31;;;;;;;8.15;7.50;;;17.70;99.90;;;;;;6271913;22;20007;-70
2022/10/15 13:30:05;;;;;;;8.90;7.93;;;17.90;99.90;;;;;;6271846;22;19999;-69
2022/10/15 13:32:35;;;;;;;7.55;6.90;;;17.80;99.90;;;;;;6272284;22;20431;-69
2022/10/15 13:35:09;;;;;;;8.35;7.53;;;17.80;99.90;;;;;;6272179;22;20002;-69
2022/10/15 13:37:37;;;;;;;9.20;7.22;;;17.90;99.90;;;;;;6272387;22;19999;-70
2022/10/15 13:40:04;;;;;;;9.50;7.53;;;17.90;99.90;;;;;;6272604;22;20010;-69
2022/10/15 13:42:30;;;;;;;9.23;8.43;;;17.90;99.90;;;;;;6272180;22;20329;-69
2022/10/15 13:45:25;;;;;;;8.68;7.78;;;18.00;99.90;;;;;;6271568;22;20006;-69
2022/10/15 13:47:52;;;;;;;11.30;8.57;;;17.90;99.90;;;;;;6246344;22;20007;-69
2022/10/15 13:50:21;;;;;;;8.63;7.80;;;18.00;99.90;;;;;;6272114;22;20000;-70
2022/10/15 13:53:00;;;;;;;10.25;8.98;;;18.40;99.90;;;;;;6272332;22;20314;-70
2022/10/15 13:55:32;;;;;;;8.15;7.38;;;18.20;99.90;;;;;;6272268;22;20011;-70
2022/10/15 13:58:20;;;;;;;9.02;8.20;;;17.90;99.90;;;;;;6272358;22;20306;-70
2022/10/15 14:01:16;;;;;;;7.82;7.10;;;17.80;99.90;;;;;;6271676;22;20072;-69
2022/10/15 14:03:49;;;;;;;7.70;6.90;;;17.70;99.90;;;;;;6270859;22;20137;-70
2022/10/15 14:06:14;;;;;;;7.40;6.65;;;17.90;99.90;;;;;;6272330;22;20023;-70
2022/10/15 14:08:40;;;;;;;7.50;6.90;;;17.70;99.90;;;;;;6272196;22;20045;-70
2022/10/15 14:11:05;;;;;;;8.82;7.97;;;17.60;99.90;;;;;;6272362;22;20011;-70
2022/10/15 14:13:31;;;;;;;8.60;7.72;;;17.90;99.90;;;;;;6271780;22;20317;-69
2022/10/15 14:16:15;;;;;;;8.40;7.60;;;17.00;99.90;;;;;;6271821;22;20079;-70
2022/10/15 14:19:08;;;;;;;8.73;7.07;;;17.10;99.90;;;;;;6272197;22;20004;-70
2022/10/15 14:21:35;;;;;;;9.10;7.57;;;16.70;99.90;;;;;;6271742;22;20015;-70
2022/10/15 14:24:22;;;;;;;7.75;7.00;;;16.80;99.90;;;;;;6271814;22;20022;-69
2022/10/15 14:26:47;;;;;;;8.15;7.35;;;16.60;99.90;;;;;;6272067;22;20023;-69
2022/10/15 14:29:28;;;;;;;8.93;8.13;;;16.60;99.90;;;;;;6271640;22;19996;-70
2022/10/15 14:31:54;;;;;;;7.35;5.70;;;16.50;99.90;;;;;;6270165;22;20138;-69
2022/10/15 14:34:34;;;;;;;6.50;5.80;;;16.60;99.90;;;;;;6271912;22;20432;-69
2022/10/15 14:37:01;;;;;;;5.95;5.35;;;16.60;99.90;;;;;;6271741;22;19996;-69
2022/10/15 14:39:29;;;;;;;6.00;5.28;;;16.60;99.90;;;;;;6271702;22;20042;-70
2022/10/15 14:42:24;;;;;;;5.45;4.85;;;16.70;99.90;;;;;;6272207;22;20004;-69
2022/10/15 14:44:50;;;;;;;5.20;4.70;;;16.80;99.90;;;;;;6271175;22;20416;-68
2022/10/15 14:47:31;;;;;;;7.35;6.43;;;17.80;99.90;;;;;;6271503;22;20004;-69
2022/10/15 14:49:59;;;;;;;5.43;4.45;;;16.80;99.90;;;;;;6271574;22;20046;-68
2022/10/15 14:52:27;;;;;;;5.57;5.07;;;17.00;99.90;;;;;;6271541;22;20133;-68
2022/10/15 14:55:00;;;;;;;5.72;5.22;;;16.90;99.90;;;;;;6271986;22;20004;-69